createdAt,value
2022-12-03T00:00:12.609Z,26.88
2022-12-03T00:03:00.759Z,26.83
2022-12-03T00:05:28.358Z,28.70
2022-12-03T00:07:55.886Z,27.73
2022-12-03T00:10:23.120Z,27.10
2022-12-03T00:12:50.635Z,29.27
2022-12-03T00:15:17.928Z,27.73
2022-12-03T00:17:45.392Z,26.93
2022-12-03T00:20:21.248Z,26.37
2022-12-03T00:22:49.246Z,28.73
2022-12-03T00:25:17.244Z,27.23
2022-12-03T00:27:45.262Z,26.90
2022-12-03T00:30:14.129Z,26.10
2022-12-03T00:32:41.676Z,26.03
2022-12-03T00:35:09.726Z,29.33
2022-12-03T00:37:37.323Z,27.60
2022-12-03T00:40:07.201Z,27.77
2022-12-03T00:42:34.704Z,28.67
2022-12-03T00:45:01.995Z,29.07
2022-12-03T00:47:29.449Z,28.73
2022-12-03T00:49:56.689Z,28.67
2022-12-03T00:52:24.156Z,29.30
2022-12-03T00:54:51.838Z,26.83
2022-12-03T00:57:19.584Z,27.87
2022-12-03T00:59:46.751Z,28.43
2022-12-03T01:02:14.321Z,29.27
2022-12-03T01:04:42.335Z,27.23
2022-12-03T01:07:09.976Z,27.42
2022-12-03T01:09:37.291Z,25.90
2022-12-03T01:12:04.941Z,25.97
2022-12-03T01:14:32.200Z,25.30
2022-12-03T01:16:59.644Z,28.20
2022-12-03T01:19:26.998Z,27.27
2022-12-03T01:21:55.650Z,25.38
2022-12-03T01:24:22.886Z,27.73
2022-12-03T01:26:50.378Z,27.00
2022-12-03T01:29:17.616Z,26.88
2022-12-03T01:32:03.603Z,26.70
2022-12-03T01:34:30.802Z,27.07
2022-12-03T01:36:58.364Z,25.83
2022-12-03T01:39:25.610Z,26.83
2022-12-03T01:41:55.412Z,28.40
2022-12-03T01:44:27.458Z,26.33
2022-12-03T01:46:58.758Z,26.15
2022-12-03T01:49:42.572Z,26.73
2022-12-03T01:52:23.054Z,25.38
2022-12-03T01:55:00.566Z,28.23
2022-12-03T01:57:43.865Z,26.63
2022-12-03T02:00:18.842Z,28.70
2022-12-03T02:02:50.744Z,28.50
2022-12-03T02:05:23.241Z,25.15
2022-12-03T02:07:51.145Z,28.93
2022-12-03T02:10:31.441Z,24.23
2022-12-03T02:13:07.156Z,25.03
2022-12-03T02:15:36.056Z,26.07
2022-12-03T02:18:03.981Z,24.73
2022-12-03T02:20:35.932Z,26.80
2022-12-03T02:23:24.682Z,25.97
2022-12-03T02:25:52.034Z,26.20
2022-12-03T02:28:19.538Z,26.53
2022-12-03T02:30:46.833Z,22.47
2022-12-03T02:33:14.645Z,24.33
2022-12-03T02:35:42.020Z,24.60
2022-12-03T02:38:29.963Z,24.60
2022-12-03T02:41:04.851Z,26.70
2022-12-03T02:43:32.767Z,25.15
2022-12-03T02:46:02.649Z,23.37
2022-12-03T02:48:38.545Z,24.80
2022-12-03T02:51:10.224Z,24.43
2022-12-03T02:53:50.246Z,25.57
2022-12-03T02:56:22.899Z,24.90
2022-12-03T02:58:56.661Z,25.83
2022-12-03T03:01:24.351Z,24.30
2022-12-03T03:03:53.156Z,26.30
2022-12-03T03:06:22.036Z,23.85
2022-12-03T03:08:51.099Z,24.60
2022-12-03T03:11:18.654Z,25.90
2022-12-03T03:13:46.576Z,25.40
2022-12-03T03:16:13.958Z,25.90
2022-12-03T03:18:42.172Z,23.77
2022-12-03T03:21:09.659Z,23.83
2022-12-03T03:23:37.095Z,25.43
2022-12-03T03:26:12.251Z,24.40
2022-12-03T03:28:47.536Z,25.70
2022-12-03T03:31:19.586Z,24.90
2022-12-03T03:33:50.184Z,24.87
2022-12-03T03:36:18.222Z,22.73
2022-12-03T03:38:47.206Z,25.23
2022-12-03T03:41:16.092Z,22.77
2022-12-03T03:43:45.653Z,24.30
2022-12-03T03:46:14.660Z,23.13
2022-12-03T03:48:43.697Z,23.73
2022-12-03T03:51:12.587Z,24.10
2022-12-03T03:53:44.636Z,23.15
2022-12-03T03:56:12.776Z,21.90
2022-12-03T03:58:40.147Z,24.30
2022-12-03T04:01:09.260Z,24.73
2022-12-03T04:03:36.930Z,24.10
2022-12-03T04:06:04.704Z,25.27
2022-12-03T04:08:32.861Z,25.30
2022-12-03T04:11:18.655Z,24.30
2022-12-03T04:13:45.932Z,25.17
2022-12-03T04:16:13.396Z,23.93
2022-12-03T04:18:43.350Z,25.77
2022-12-03T04:21:36.135Z,25.03
2022-12-03T04:24:05.191Z,24.65
2022-12-03T04:26:51.758Z,26.17
2022-12-03T04:29:20.485Z,25.37
2022-12-03T04:32:06.568Z,27.00
2022-12-03T04:34:53.185Z,24.47
2022-12-03T04:37:20.931Z,27.23
2022-12-03T04:39:48.259Z,27.88
2022-12-03T04:42:15.908Z,26.00
2022-12-03T04:44:43.365Z,27.10
2022-12-03T04:47:18.301Z,27.38
2022-12-03T04:49:49.423Z,27.47
2022-12-03T04:52:19.983Z,27.10
2022-12-03T04:54:47.468Z,26.60
2022-12-03T04:57:15.087Z,28.97
2022-12-03T04:59:42.328Z,28.13
2022-12-03T05:02:10.009Z,26.87
2022-12-03T05:04:37.411Z,27.42
2022-12-03T05:07:05.000Z,29.50
2022-12-03T05:09:32.432Z,28.52
2022-12-03T05:12:00.000Z,27.53
2022-12-03T05:14:27.210Z,26.70
2022-12-03T05:16:54.738Z,28.02
2022-12-03T05:19:41.943Z,26.52
2022-12-03T05:22:09.424Z,27.30
2022-12-03T05:24:36.591Z,28.00
2022-12-03T05:27:04.211Z,28.63
2022-12-03T05:29:31.338Z,28.87
2022-12-03T05:31:58.871Z,29.07
2022-12-03T05:34:26.000Z,28.20
2022-12-03T05:36:53.411Z,28.80
2022-12-03T05:39:20.609Z,28.20
2022-12-03T05:42:06.407Z,30.63
2022-12-03T05:44:33.593Z,29.63
2022-12-03T05:47:01.023Z,28.77
2022-12-03T05:49:28.164Z,30.93
2022-12-03T05:51:58.599Z,27.63
2022-12-03T05:54:26.431Z,27.30
2022-12-03T05:56:53.960Z,30.42
2022-12-03T05:59:21.381Z,30.33
2022-12-03T06:01:48.878Z,30.37
2022-12-03T06:04:16.036Z,29.03
2022-12-03T06:06:43.615Z,28.10
2022-12-03T06:09:10.846Z,28.47
2022-12-03T06:11:40.019Z,28.70
2022-12-03T06:14:08.056Z,29.52
2022-12-03T06:16:35.685Z,29.17
2022-12-03T06:19:02.973Z,29.63
2022-12-03T06:21:30.386Z,28.83
2022-12-03T06:23:57.527Z,29.48
2022-12-03T06:26:25.016Z,29.30
2022-12-03T06:28:52.532Z,31.23
2022-12-03T06:31:20.107Z,30.30
2022-12-03T06:33:47.550Z,29.47
2022-12-03T06:36:17.807Z,28.80
2022-12-03T06:38:48.624Z,30.08
2022-12-03T06:41:16.051Z,30.02
2022-12-03T06:43:43.336Z,32.47
2022-12-03T06:46:10.936Z,31.60
2022-12-03T06:48:39.800Z,30.05
2022-12-03T06:51:07.242Z,29.00
2022-12-03T06:53:34.446Z,32.23
2022-12-03T06:56:01.904Z,32.33
2022-12-03T06:58:29.155Z,30.07
2022-12-03T07:00:56.603Z,31.50
2022-12-03T07:03:23.847Z,32.88
2022-12-03T07:05:51.333Z,31.87
2022-12-03T07:08:18.521Z,33.45
2022-12-03T07:10:46.116Z,30.30
2022-12-03T07:13:13.238Z,32.08
2022-12-03T07:15:40.786Z,30.13
2022-12-03T07:18:08.139Z,32.77
2022-12-03T07:20:35.594Z,30.63
2022-12-03T07:23:02.800Z,32.00
2022-12-03T07:25:30.509Z,33.50
2022-12-03T07:27:57.682Z,31.50
2022-12-03T07:30:25.788Z,31.90
2022-12-03T07:32:52.919Z,34.15
2022-12-03T07:35:20.368Z,32.80
2022-12-03T07:37:47.875Z,33.37
2022-12-03T07:40:15.599Z,32.37
2022-12-03T07:42:42.769Z,35.23
2022-12-03T07:45:11.032Z,33.17
2022-12-03T07:47:38.213Z,34.60
2022-12-03T07:50:06.571Z,35.50
2022-12-03T07:52:33.784Z,35.90
2022-12-03T07:55:01.218Z,35.92
2022-12-03T07:57:28.461Z,35.60
2022-12-03T07:59:55.901Z,35.67
2022-12-03T08:02:23.143Z,35.80
2022-12-03T08:04:51.188Z,36.90
2022-12-03T08:07:18.527Z,36.47
2022-12-03T08:09:46.262Z,35.33
2022-12-03T08:12:40.318Z,34.93
2022-12-03T08:15:11.507Z,34.13
2022-12-03T08:17:42.528Z,35.07
2022-12-03T08:20:20.361Z,35.35
2022-12-03T08:22:51.057Z,34.70
2022-12-03T08:25:32.159Z,36.37
2022-12-03T08:28:20.836Z,36.03
2022-12-03T08:31:01.579Z,36.08
2022-12-03T08:33:35.387Z,35.27
2022-12-03T08:36:29.317Z,37.83
2022-12-03T08:39:07.235Z,35.23
2022-12-03T08:41:55.156Z,32.80
2022-12-03T08:44:38.592Z,34.88
2022-12-03T08:47:24.454Z,36.73
2022-12-03T08:50:00.328Z,37.50
2022-12-03T08:52:33.304Z,39.72
2022-12-03T08:55:33.754Z,38.83
2022-12-03T08:58:16.416Z,35.60
2022-12-03T09:00:44.551Z,39.58
2022-12-03T09:03:19.422Z,37.70
2022-12-03T09:05:46.636Z,38.67
2022-12-03T09:08:14.161Z,38.08
2022-12-03T09:10:41.400Z,39.50
2022-12-03T09:13:09.313Z,37.85
2022-12-03T09:15:36.451Z,35.35
2022-12-03T09:18:04.149Z,38.08
2022-12-03T09:20:31.373Z,38.67
2022-12-03T09:22:58.845Z,37.63
2022-12-03T09:25:26.022Z,36.05
2022-12-03T09:27:53.741Z,40.20
2022-12-03T09:30:21.002Z,38.25
2022-12-03T09:32:48.589Z,32.80
2022-12-03T09:35:16.007Z,35.07
2022-12-03T09:37:43.684Z,33.42
2022-12-03T09:40:12.111Z,33.73
2022-12-03T09:42:40.015Z,33.30
2022-12-03T09:45:12.354Z,33.05
2022-12-03T09:47:50.676Z,33.28
2022-12-03T09:50:26.541Z,33.63
2022-12-03T09:52:58.574Z,35.35
2022-12-03T09:55:28.772Z,35.60
2022-12-03T09:57:57.703Z,33.75
2022-12-03T10:00:30.037Z,33.60
2022-12-03T10:03:02.598Z,33.15
2022-12-03T10:05:30.302Z,34.50
2022-12-03T10:08:08.477Z,34.33
2022-12-03T10:10:39.185Z,36.58
2022-12-03T10:13:10.856Z,34.10
2022-12-03T10:15:38.294Z,38.15
2022-12-03T10:18:30.795Z,36.30
2022-12-03T10:20:58.781Z,35.05
2022-12-03T10:23:31.475Z,35.55
2022-12-03T10:26:04.161Z,35.60
2022-12-03T10:28:40.042Z,36.97
2022-12-03T10:31:12.987Z,36.30
2022-12-03T10:33:45.265Z,37.55
2022-12-03T10:36:23.369Z,34.88
2022-12-03T10:39:16.517Z,37.15
2022-12-03T10:41:45.086Z,35.30
2022-12-03T10:44:30.600Z,36.60
2022-12-03T10:47:14.027Z,40.88
2022-12-03T10:49:42.756Z,41.38
2022-12-03T10:52:30.320Z,40.38
2022-12-03T10:54:58.208Z,38.67
2022-12-03T10:57:25.798Z,39.85
2022-12-03T10:59:53.324Z,38.90
2022-12-03T11:02:24.463Z,41.13
2022-12-03T11:04:52.838Z,36.95
2022-12-03T11:07:22.341Z,41.55
2022-12-03T11:09:54.790Z,38.35
2022-12-03T11:12:28.846Z,37.88
2022-12-03T11:14:57.624Z,40.13
2022-12-03T11:17:43.174Z,36.70
2022-12-03T11:20:33.685Z,36.88
2022-12-03T11:23:00.915Z,38.30
2022-12-03T11:25:28.361Z,37.97
2022-12-03T11:28:13.608Z,42.38
2022-12-03T11:30:50.655Z,39.42
2022-12-03T11:33:21.743Z,42.20
2022-12-03T11:36:04.529Z,41.45
2022-12-03T11:38:37.943Z,38.13
2022-12-03T11:41:13.111Z,38.10
2022-12-03T11:43:52.276Z,41.00
2022-12-03T11:46:36.389Z,40.00
2022-12-03T11:49:32.788Z,37.22
2022-12-03T11:52:11.387Z,38.45
2022-12-03T11:54:38.679Z,41.20
2022-12-03T11:57:27.750Z,42.33
2022-12-03T12:00:09.391Z,40.58
2022-12-03T12:02:36.951Z,39.33
2022-12-03T12:05:27.628Z,41.03
2022-12-03T12:07:56.343Z,41.05
2022-12-03T12:10:43.879Z,40.40
2022-12-03T12:13:34.052Z,42.92
2022-12-03T12:16:06.961Z,38.58
2022-12-03T12:18:45.796Z,44.13
2022-12-03T12:21:50.821Z,47.63
2022-12-03T12:24:54.204Z,42.35
2022-12-03T12:27:36.459Z,43.00
2022-12-03T12:30:19.909Z,45.22
2022-12-03T12:33:07.123Z,43.47
2022-12-03T12:35:34.646Z,43.42
2022-12-03T12:38:07.635Z,45.60
2022-12-03T12:40:38.747Z,46.35
2022-12-03T12:43:15.253Z,43.30
2022-12-03T12:45:45.620Z,44.10
2022-12-03T12:48:28.975Z,42.72
2022-12-03T12:51:19.442Z,41.92
2022-12-03T12:53:47.136Z,40.88
2022-12-03T12:56:32.185Z,41.88
2022-12-03T12:59:14.465Z,44.10
2022-12-03T13:01:44.941Z,42.80
2022-12-03T13:04:22.706Z,43.42
2022-12-03T13:06:54.035Z,39.63
2022-12-03T13:09:26.484Z,40.83
2022-12-03T13:12:03.935Z,43.47
2022-12-03T13:14:35.944Z,41.67
2022-12-03T13:17:18.441Z,39.95
2022-12-03T13:19:49.466Z,41.72
2022-12-03T13:22:23.085Z,41.53
2022-12-03T13:24:52.619Z,38.90
2022-12-03T13:27:20.102Z,43.25
2022-12-03T13:29:55.257Z,44.25
2022-12-03T13:32:34.224Z,45.35
2022-12-03T13:35:13.293Z,46.20
2022-12-03T13:37:40.861Z,46.08
2022-12-03T13:40:30.695Z,43.55
2022-12-03T13:42:59.539Z,44.78
2022-12-03T13:45:38.924Z,45.83
2022-12-03T13:48:25.689Z,43.55
2022-12-03T13:50:53.608Z,40.63
2022-12-03T13:53:34.944Z,40.08
2022-12-03T13:56:31.259Z,41.85
2022-12-03T13:59:01.309Z,43.53
2022-12-03T14:01:29.115Z,45.93
2022-12-03T14:03:57.119Z,39.13
2022-12-03T14:06:24.394Z,41.77
2022-12-03T14:08:51.897Z,45.55
2022-12-03T14:11:37.828Z,44.77
2022-12-03T14:14:05.472Z,44.07
2022-12-03T14:16:32.711Z,44.37
2022-12-03T14:19:00.316Z,46.15
2022-12-03T14:21:27.467Z,50.67
2022-12-03T14:23:54.925Z,52.27
2022-12-03T14:26:22.059Z,48.87
2022-12-03T14:28:49.535Z,44.70
2022-12-03T14:31:16.942Z,43.55
2022-12-03T14:33:44.446Z,46.75
2022-12-03T14:36:11.809Z,46.70
2022-12-03T14:38:39.351Z,46.03
2022-12-03T14:41:26.638Z,47.85
2022-12-03T14:43:54.066Z,43.43
2022-12-03T14:46:21.314Z,43.80
2022-12-03T14:48:48.749Z,43.30
2022-12-03T14:51:15.975Z,43.50
2022-12-03T14:53:43.419Z,41.20
2022-12-03T14:56:10.603Z,39.63
2022-12-03T14:58:38.473Z,39.63
2022-12-03T15:01:06.038Z,39.37
2022-12-03T15:03:33.589Z,40.83
2022-12-03T15:06:00.838Z,37.10
2022-12-03T15:08:28.949Z,38.97
2022-12-03T15:10:56.391Z,39.37
2022-12-03T15:13:23.851Z,36.45
2022-12-03T15:15:51.153Z,37.90
2022-12-03T15:18:18.830Z,39.27
2022-12-03T15:20:46.126Z,42.27
2022-12-03T15:23:14.745Z,43.17
2022-12-03T15:25:42.286Z,41.63
2022-12-03T15:28:10.179Z,42.37
2022-12-03T15:30:37.398Z,42.33
2022-12-03T15:33:05.396Z,41.53
2022-12-03T15:35:33.743Z,40.47
2022-12-03T15:38:01.443Z,42.83
2022-12-03T15:40:28.714Z,43.00
2022-12-03T15:42:56.232Z,40.17
2022-12-03T15:45:23.385Z,40.57
2022-12-03T15:47:50.863Z,37.93
2022-12-03T15:50:18.243Z,39.60
2022-12-03T15:52:45.705Z,39.93
2022-12-03T15:55:13.128Z,42.40
2022-12-03T15:57:40.743Z,40.28
2022-12-03T16:00:10.539Z,44.40
2022-12-03T16:02:38.123Z,41.13
2022-12-03T16:05:09.923Z,40.87
2022-12-03T16:07:38.218Z,40.50
2022-12-03T16:10:08.478Z,41.77
2022-12-03T16:12:36.035Z,38.40
2022-12-03T16:15:03.721Z,40.70
2022-12-03T16:17:31.144Z,39.20
2022-12-03T16:19:58.360Z,38.50
2022-12-03T16:22:25.794Z,40.25
2022-12-03T16:24:52.933Z,38.37
2022-12-03T16:27:25.302Z,41.33
2022-12-03T16:29:53.413Z,39.07
2022-12-03T16:32:21.190Z,42.27
2022-12-03T16:34:48.425Z,42.43
2022-12-03T16:37:16.081Z,41.37
2022-12-03T16:39:43.295Z,40.92
2022-12-03T16:42:16.961Z,39.57
2022-12-03T16:45:14.181Z,39.07
2022-12-03T16:47:41.678Z,38.03
2022-12-03T16:50:15.856Z,39.43
2022-12-03T16:52:47.621Z,37.83
2022-12-03T16:55:14.838Z,41.30
2022-12-03T16:57:42.304Z,38.23
2022-12-03T17:00:10.276Z,41.97
2022-12-03T17:02:37.759Z,39.83
2022-12-03T17:05:05.415Z,37.77
2022-12-03T17:07:32.963Z,37.97
2022-12-03T17:10:00.275Z,38.73
2022-12-03T17:12:42.306Z,37.07
2022-12-03T17:15:15.349Z,40.10
2022-12-03T17:17:42.961Z,39.83
2022-12-03T17:20:12.603Z,37.60
2022-12-03T17:22:41.545Z,37.90
2022-12-03T17:25:10.509Z,38.90
2022-12-03T17:27:43.543Z,38.00
2022-12-03T17:30:13.621Z,37.60
2022-12-03T17:32:41.427Z,38.53
2022-12-03T17:35:10.675Z,35.42
2022-12-03T17:37:38.552Z,34.67
2022-12-03T17:40:08.847Z,38.97
2022-12-03T17:42:36.428Z,38.57
2022-12-03T17:45:04.109Z,35.17
2022-12-03T17:47:31.780Z,35.57
2022-12-03T17:49:59.030Z,37.77
2022-12-03T17:52:26.547Z,37.03
2022-12-03T17:55:12.212Z,38.00
2022-12-03T17:57:41.444Z,36.67
2022-12-03T18:00:09.664Z,38.13
2022-12-03T18:02:37.218Z,38.87
2022-12-03T18:05:04.781Z,38.33
2022-12-03T18:07:32.885Z,38.53
2022-12-03T18:10:00.255Z,38.43
2022-12-03T18:12:27.884Z,38.40
2022-12-03T18:14:55.223Z,35.13
2022-12-03T18:17:22.737Z,38.87
2022-12-03T18:19:49.987Z,38.40
2022-12-03T18:22:17.914Z,40.20
2022-12-03T18:24:47.536Z,40.33
2022-12-03T18:27:17.838Z,36.33
2022-12-03T18:29:45.171Z,38.27
2022-12-03T18:32:27.689Z,38.10
2022-12-03T18:34:56.620Z,38.53
2022-12-03T18:37:28.759Z,39.47
2022-12-03T18:39:58.755Z,38.83
2022-12-03T18:42:27.187Z,37.70
2022-12-03T18:44:56.522Z,37.40
2022-12-03T18:47:28.912Z,38.87
2022-12-03T18:49:57.760Z,38.97
2022-12-03T18:52:25.621Z,41.23
2022-12-03T18:54:53.371Z,39.07
2022-12-03T18:57:20.831Z,38.30
2022-12-03T18:59:48.116Z,39.00
2022-12-03T19:03:01.999Z,38.70
2022-12-03T19:05:10.730Z,38.33
2022-12-03T19:07:38.542Z,39.23
2022-12-03T19:10:06.664Z,35.90
2022-12-03T19:12:34.463Z,38.13
2022-12-03T19:15:02.925Z,40.37
2022-12-03T19:17:30.557Z,37.85
2022-12-03T19:19:58.221Z,36.20
2022-12-03T19:22:25.842Z,38.27
2022-12-03T19:24:53.188Z,37.00
2022-12-03T19:27:20.727Z,38.00
2022-12-03T19:29:51.123Z,37.40
2022-12-03T19:32:18.622Z,37.13
2022-12-03T19:34:45.893Z,36.27
2022-12-03T19:37:13.363Z,36.20
2022-12-03T19:39:41.186Z,37.63
2022-12-03T19:42:10.053Z,36.43
2022-12-03T19:44:37.621Z,38.10
2022-12-03T19:47:05.175Z,38.10
2022-12-03T19:49:32.547Z,36.57
2022-12-03T19:52:00.038Z,34.90
2022-12-03T19:54:27.281Z,38.38
2022-12-03T19:56:54.792Z,37.60
2022-12-03T19:59:21.975Z,38.97
2022-12-03T20:01:49.602Z,35.80
2022-12-03T20:04:17.054Z,35.22
2022-12-03T20:06:45.521Z,37.25
2022-12-03T20:09:17.961Z,35.40
2022-12-03T20:11:46.183Z,37.97
2022-12-03T20:14:17.575Z,38.42
2022-12-03T20:16:45.626Z,36.83
2022-12-03T20:19:16.362Z,38.40
2022-12-03T20:21:44.904Z,38.13
2022-12-03T20:24:18.145Z,37.10
2022-12-03T20:26:45.784Z,36.57
2022-12-03T20:29:13.270Z,37.60
2022-12-03T20:31:41.000Z,39.67
2022-12-03T20:34:08.326Z,39.50
2022-12-03T20:36:36.117Z,40.77
2022-12-03T20:39:07.516Z,39.13
2022-12-03T20:41:36.997Z,42.33
2022-12-03T20:44:07.649Z,38.95
2022-12-03T20:46:36.296Z,38.80
2022-12-03T20:49:04.314Z,39.30
2022-12-03T20:51:32.196Z,37.50
2022-12-03T20:54:01.321Z,37.80
2022-12-03T20:56:35.907Z,36.42
2022-12-03T20:59:07.195Z,38.50
2022-12-03T21:01:36.413Z,36.60
2022-12-03T21:04:05.497Z,38.10
2022-12-03T21:06:36.204Z,37.87
2022-12-03T21:09:06.932Z,39.30
2022-12-03T21:11:36.213Z,38.93
2022-12-03T21:14:05.117Z,38.60
2022-12-03T21:17:07.898Z,39.17
2022-12-03T21:19:24.865Z,39.30
2022-12-03T21:21:52.594Z,37.97
2022-12-03T21:24:20.017Z,35.90
2022-12-03T21:26:47.660Z,39.78
2022-12-03T21:29:15.046Z,38.97
2022-12-03T21:31:42.864Z,40.38
2022-12-03T21:34:11.278Z,37.15
2022-12-03T21:36:39.672Z,40.67
2022-12-03T21:39:08.058Z,39.05
2022-12-03T21:41:35.677Z,40.45
2022-12-03T21:44:03.938Z,41.85
2022-12-03T21:47:12.689Z,38.22
2022-12-03T21:49:20.902Z,39.95
2022-12-03T21:51:49.065Z,42.10
2022-12-03T21:54:16.693Z,38.97
2022-12-03T21:56:44.408Z,42.97
2022-12-03T21:59:11.775Z,40.35
2022-12-03T22:01:42.894Z,39.42
2022-12-03T22:04:14.117Z,39.93
2022-12-03T22:06:41.992Z,38.55
2022-12-03T22:09:09.259Z,38.95
2022-12-03T22:11:36.936Z,38.87
2022-12-03T22:14:06.897Z,39.27
2022-12-03T22:16:34.741Z,36.28
2022-12-03T22:19:02.290Z,38.13
2022-12-03T22:21:30.665Z,38.38
2022-12-03T22:23:59.059Z,37.08
2022-12-03T22:26:27.290Z,40.33
2022-12-03T22:28:55.245Z,35.50
2022-12-03T22:31:27.411Z,37.67
2022-12-03T22:33:57.434Z,35.43
2022-12-03T22:36:24.968Z,35.20
2022-12-03T22:38:52.246Z,37.33
2022-12-03T22:41:20.590Z,37.60
2022-12-03T22:43:49.704Z,32.85
2022-12-03T22:46:17.640Z,34.15
2022-12-03T22:48:47.549Z,35.70
2022-12-03T22:51:21.361Z,36.28
2022-12-03T22:53:55.045Z,36.55
2022-12-03T22:56:22.818Z,34.88
2022-12-03T22:58:52.819Z,35.53
2022-12-03T23:01:26.871Z,36.28
2022-12-03T23:03:55.053Z,34.33
2022-12-03T23:06:24.202Z,35.47
2022-12-03T23:08:52.397Z,34.13
2022-12-03T23:11:20.538Z,32.40
2022-12-03T23:13:49.197Z,33.38
2022-12-03T23:16:24.752Z,35.43
2022-12-03T23:18:53.273Z,35.42
2022-12-03T23:21:29.968Z,36.20
2022-12-03T23:24:00.067Z,34.67
2022-12-03T23:26:29.025Z,34.10
2022-12-03T23:28:56.638Z,35.15
2022-12-03T23:31:31.422Z,34.92
2022-12-03T23:33:59.943Z,33.80
2022-12-03T23:36:31.757Z,34.87
2022-12-03T23:38:59.005Z,35.13
2022-12-03T23:41:31.584Z,35.47
2022-12-03T23:43:58.819Z,38.05
2022-12-03T23:46:28.166Z,34.45
2022-12-03T23:48:56.201Z,36.43
2022-12-03T23:51:25.654Z,35.83
2022-12-03T23:53:54.806Z,38.97
2022-12-03T23:56:28.122Z,34.50
2022-12-03T23:58:56.019Z,34.90
